Latest Weather Observations for Point Fawcett

IDD60901

Issued at 8:01 pm CST Sunday 25 June 2017 (issued every 10 minutes, with the page automatically refreshed every 10 minutes)

About weather observations | Map of Darwin area stations | Latest observations for Darwin area | Other Formats
Station Details ID: 200731 Name: POINT FAWCETT Lat: -11.76 Lon: 130.03 Height: 6.5 m
Data from the previous 72 hours. | See also: Recent months at Point Fawcett
Date/Time
CST
Temp
°C
App
Temp
°C
Dew
Point
°C
Rel
Hum
%
Delta-T
°C
Wind Press
QNH
hPa
Press
MSL
hPa
Rain since
9am
mm
Dir  Spd
km/h
Gust
km/h
Spd
kts
Gust
kts
25/08:00pm 25.6 - - - - N 15 20 8 11 1011.8 - 0.0
25/07:30pm 25.7 - - - - N 17 22 9 12 1011.5 - 0.0
25/07:00pm 26.0 - - - - N 20 26 11 14 1011.3 - 0.0
25/06:30pm 26.7 - - - - N 13 20 7 11 1011.1 - 0.0
25/06:00pm 27.3 - - - - ENE 9 13 5 7 1010.8 1010.8 0.0
25/05:30pm 28.5 - - - - ESE 7 13 4 7 1010.5 - 0.0
25/05:00pm 28.8 - - - - ESE 11 17 6 9 1010.3 - 0.0
25/04:30pm 30.0 - - - - SE 11 20 6 11 1010.4 - 0.0
25/04:00pm 30.1 - - - - SE 13 20 7 11 1010.5 - 0.0
25/03:30pm 29.9 - - - - SE 15 26 8 14 1010.6 - 0.0
25/03:00pm 30.4 - - - - SE 17 28 9 15 1010.7 1010.7 0.0
25/02:30pm 30.6 - - - - ESE 11 20 6 11 1011.1 - 0.0
25/02:00pm 31.4 - - - - ESE 11 24 6 13 1011.5 - 0.0
25/01:30pm 31.5 - - - - E 15 24 8 13 1011.7 - 0.0
25/01:00pm 31.2 - - - - E 13 20 7 11 1012.1 - 0.0
25/12:30pm 30.3 - - - - ESE 13 22 7 12 1012.8 - 0.0
25/12:00pm 30.2 - - - - ESE 13 24 7 13 1013.1 1013.1 0.0
25/11:30am 29.6 - - - - SE 9 15 5 8 1013.5 - 0.0
25/11:00am 29.4 - - - - ESE 13 17 7 9 1013.6 - 0.0
25/10:30am 29.1 - - - - E 11 20 6 11 1013.7 - 0.0
25/10:00am 27.4 - - - - ESE 11 19 6 10 1013.7 - 0.0
25/09:30am 26.5 - - - - ESE 11 17 6 9 1013.6 - 0.0
25/09:00am 25.2 - - - - E 7 11 4 6 1013.5 1013.5 0.0
25/08:30am 21.7 - - - - E 7 9 4 5 1013.3 - 0.0
25/08:00am 18.0 - - - - ESE 7 9 4 5 1013.1 - 0.0
25/07:30am 16.0 - - - - ESE 7 7 4 4 1012.8 - 0.0
25/07:00am 15.5 - - - - ESE 7 9 4 5 1012.5 - 0.0
25/06:30am 15.6 - - - - ESE 7 7 4 4 1012.2 - 0.0
25/06:00am 15.6 - - - - ESE 7 9 4 5 1012.1 1012.1 0.0
25/05:30am 15.6 - - - - ESE 7 7 4 4 1012.2 - 0.0
25/05:00am 15.7 - - - - ESE 7 7 4 4 1012.1 - 0.0
25/04:30am 16.1 - - - - ESE 7 9 4 5 1011.9 - 0.0
25/04:00am 16.5 - - - - ESE 7 9 4 5 1011.9 - 0.0
25/03:30am 17.5 - - - - ESE 9 11 5 6 1011.9 - 0.0
25/03:00am 17.5 - - - - ESE 11 17 6 9 1012.0 1012.0 0.0
25/02:30am 16.3 - - - - ESE 11 13 6 7 1012.1 - 0.0
25/02:00am 15.7 - - - - ESE 11 13 6 7 1012.0 - 0.0
25/01:30am 15.8 - - - - ESE 9 11 5 6 1012.1 - 0.0
25/01:00am 15.8 - - - - SE 9 9 5 5 1012.2 - 0.0
25/12:30am 16.1 - - - - CALM 0 0 0 0 1012.2 - 0.0
25/12:00am 16.4 - - - - ESE 4 6 2 3 1012.1 1012.1 0.0
 
Date/Time
CST
Temp
°C
App
Temp
°C
Dew
Point
°C
Rel
Hum
%
Delta-T
°C
Wind Press
QNH
hPa
Press
MSL
hPa
Rain since
9am
mm
Dir  Spd
km/h
Gust
km/h
Spd
kts
Gust
kts
24/11:30pm 16.6 - - - - ESE 7 9 4 5 1012.0 - 0.0
24/11:00pm 16.9 - - - - E 9 9 5 5 1011.8 - 0.0
24/10:30pm 17.5 - - - - E 7 9 4 5 1011.9 - 0.0
24/10:00pm 17.8 - - - - E 7 9 4 5 1011.7 - 0.0
24/09:30pm 17.9 - - - - E 7 9 4 5 1011.5 - 0.0
24/09:00pm 18.7 - - - - E 7 7 4 4 1011.3 1011.3 0.0
24/08:30pm 20.0 - - - - E 7 7 4 4 1011.0 - 0.0
24/08:00pm 22.1 - - - - E 9 13 5 7 1010.5 - 0.0
24/07:30pm 21.9 - - - - ENE 9 11 5 6 1010.2 - 0.0
24/07:00pm 21.5 - - - - ENE 9 11 5 6 1009.8 - 0.0
24/06:30pm 23.6 - - - - ESE 7 11 4 6 1009.7 - 0.0
24/06:00pm 27.0 - - - - ESE 9 13 5 7 1009.4 1009.4 0.0
24/05:30pm 28.6 - - - - ESE 11 19 6 10 1009.3 - 0.0
24/05:00pm 29.4 - - - - ESE 13 22 7 12 1009.1 - 0.0
24/04:30pm 29.7 - - - - ESE 15 26 8 14 1009.1 - 0.0
24/04:00pm 29.9 - - - - ESE 15 32 8 17 1009.2 - 0.0
24/03:30pm 29.8 - - - - SE 17 24 9 13 1009.4 - 0.0
24/03:00pm 29.8 - - - - SE 15 24 8 13 1009.7 1009.7 0.0
24/02:30pm 31.0 - - - - ESE 15 20 8 11 1010.0 - 0.0
24/02:00pm 31.0 - - - - ESE 11 24 6 13 1010.6 - 0.0
24/01:30pm 31.2 - - - - ESE 13 26 7 14 1011.1 - 0.0
24/01:00pm 30.0 - - - - SE 13 20 7 11 1011.6 - 0.0
24/12:30pm 28.4 - - - - ESE 11 20 6 11 1012.3 - 0.0
24/12:00pm 30.3 - - - - ESE 13 26 7 14 1012.6 1012.6 0.0
24/11:30am 29.4 - - - - E 15 24 8 13 1013.0 - 0.0
24/11:00am 28.4 - - - - E 13 22 7 12 1013.2 - 0.0
24/10:30am 26.8 - - - - E 13 20 7 11 1013.6 - 0.0
24/10:00am 26.5 - - - - E 13 19 7 10 1013.8 - 0.0
24/09:30am 27.3 - - - - E 15 26 8 14 1013.8 - 0.0
24/09:00am 25.3 - - - - E 13 17 7 9 1013.5 1013.5 0.0
24/08:30am 23.7 - - - - E 11 15 6 8 1013.3 - 0.0
24/08:00am 22.4 - - - - E 9 13 5 7 1012.9 - 0.0
24/07:30am 21.8 - - - - E 9 13 5 7 1012.5 - 0.0
24/07:00am 21.3 - - - - E 11 13 6 7 1012.2 - 0.0
24/06:30am 21.4 - - - - E 9 15 5 8 1011.8 - 0.0
24/06:00am 21.5 - - - - ESE 9 13 5 7 1011.5 1011.5 0.0
24/05:30am 21.7 - - - - E 11 13 6 7 1011.5 - 0.0
24/05:00am 21.8 - - - - E 9 13 5 7 1011.5 - 0.0
24/04:30am 21.9 - - - - E 9 13 5 7 1011.5 - 0.0
24/04:00am 22.0 - - - - E 9 13 5 7 1011.6 - 0.0
24/03:30am 21.8 - - - - E 9 13 5 7 1011.5 - 0.0
24/03:00am 20.7 - - - - ESE 9 11 5 6 1011.8 1011.8 0.0
24/02:30am 20.4 - - - - ESE 7 9 4 5 1011.9 - 0.0
24/02:00am 20.5 - - - - ESE 7 9 4 5 1012.1 - 0.0
24/01:30am 20.9 - - - - E 7 9 4 5 1012.3 - 0.0
24/01:00am 20.8 - - - - ESE 7 9 4 5 1012.4 - 0.0
24/12:30am 21.2 - - - - E 6 7 3 4 1012.5 - 0.0
24/12:00am 21.9 - - - - E 6 7 3 4 1012.5 1012.5 0.0
 
Date/Time
CST
Temp
°C
App
Temp
°C
Dew
Point
°C
Rel
Hum
%
Delta-T
°C
Wind Press
QNH
hPa
Press
MSL
hPa
Rain since
9am
mm
Dir  Spd
km/h
Gust
km/h
Spd
kts
Gust
kts
23/11:30pm 22.9 - - - - ENE 6 7 3 4 1012.7 - 0.0
23/11:00pm 24.6 - - - - NE 7 11 4 6 1012.8 - 0.0
23/10:30pm 25.1 - - - - NE 9 13 5 7 1012.8 - 0.0
23/10:00pm 25.6 - - - - NNE 11 15 6 8 1012.7 - 0.0
23/09:30pm 26.0 - - - - NNE 13 20 7 11 1012.6 - 0.0
23/09:00pm 26.1 - - - - N 13 19 7 10 1012.3 1012.3 0.0
23/08:30pm 26.1 - - - - N 13 19 7 10 1012.1 - 0.0
23/08:00pm 26.2 - - - - N 15 19 8 10 1011.9 - 0.0
23/07:30pm 26.3 - - - - N 13 19 7 10 1011.6 - 0.0
23/07:00pm 26.4 - - - - N 17 22 9 12 1011.3 - 0.0
23/06:30pm 27.0 - - - - NNW 15 20 8 11 1010.9 - 0.0
23/06:00pm 28.1 - - - - N 13 17 7 9 1010.7 1010.7 0.0
23/05:30pm 29.2 - - - - SE 7 13 4 7 1010.4 - 0.0
23/05:00pm 30.0 - - - - ESE 9 17 5 9 1010.3 - 0.0
23/04:30pm 30.4 - - - - SE 9 15 5 8 1010.3 - 0.0
23/04:00pm 30.9 - - - - SE 9 15 5 8 1010.3 - 0.0
23/03:30pm 31.6 - - - - ESE 11 17 6 9 1010.5 - 0.0
23/03:00pm 31.1 - - - - ESE 13 20 7 11 1010.9 1010.9 0.0
23/02:30pm 31.3 - - - - SE 9 17 5 9 1011.2 - 0.0
23/02:00pm 30.8 - - - - E 17 22 9 12 1011.8 - 0.0
23/01:30pm 31.4 - - - - E 17 24 9 13 1012.1 - 0.0
23/01:00pm 30.5 - - - - E 17 30 9 16 1012.5 - 0.0
23/12:30pm 30.1 - - - - ESE 13 24 7 13 1013.2 - 0.0
23/12:00pm 29.4 - - - - ESE 13 24 7 13 1013.8 1013.8 0.0
23/11:30am 29.0 - - - - SE 15 22 8 12 1013.9 - 0.0
23/11:00am 28.7 - - - - ESE 13 20 7 11 1014.3 - 0.0
23/10:30am 28.7 - - - - ESE 11 20 6 11 1014.4 - 0.0
23/10:00am 28.0 - - - - E 13 19 7 10 1014.6 - 0.0
23/09:30am 27.7 - - - - ESE 9 13 5 7 1014.6 - 0.0
23/09:00am 25.7 - - - - ESE 7 9 4 5 1014.5 1014.5 0.0
23/08:30am 23.7 - - - - E 7 11 4 6 1014.1 - 0.0
23/08:00am 20.4 - - - - ESE 7 9 4 5 1013.8 - 0.0
23/07:30am 19.0 - - - - ESE 7 9 4 5 1013.5 - 0.0
23/07:00am 18.9 - - - - ESE 9 11 5 6 1013.3 - 0.0
23/06:30am 18.6 - - - - ESE 7 9 4 5 1013.1 - 0.0
23/06:00am 18.8 - - - - ESE 7 9 4 5 1012.9 1012.9 0.0
23/05:30am 18.7 - - - - ESE 7 9 4 5 1012.9 - 0.0
23/05:00am 18.8 - - - - ESE 7 9 4 5 1013.0 - 0.0
23/04:30am 18.9 - - - - ESE 7 9 4 5 1013.0 - 0.0
23/04:00am 19.1 - - - - ESE 7 9 4 5 1013.0 - 0.0
23/03:30am 18.6 - - - - ESE 7 9 4 5 1013.1 - 0.0
23/03:00am 18.4 - - - - SE 7 7 4 4 1013.3 1013.3 0.0
23/02:30am 18.2 - - - - SE 6 7 3 4 1013.3 - 0.0
23/02:00am 18.4 - - - - SE 7 7 4 4 1013.4 - 0.0
23/01:30am 18.5 - - - - S 6 7 3 4 1013.7 - 0.0
23/01:00am 18.6 - - - - CALM 0 0 0 0 1014.1 - 0.0
23/12:30am 18.6 - - - - CALM 0 0 0 0 1014.1 - 0.0
23/12:00am 18.6 - - - - CALM 0 0 0 0 1014.3 1014.3 0.0
 
Date/Time
CST
Temp
°C
App
Temp
°C
Dew
Point
°C
Rel
Hum
%
Delta-T
°C
Wind Press
QNH
hPa
Press
MSL
hPa
Rain since
9am
mm
Dir  Spd
km/h
Gust
km/h
Spd
kts
Gust
kts
22/11:30pm 18.8 - - - - CALM 0 0 0 0 1014.3 - 0.0
22/11:00pm 19.2 - - - - CALM 0 0 0 0 1014.2 - 0.0
22/10:30pm 19.6 - - - - CALM 0 4 0 2 1014.4 - 0.0
22/10:00pm 19.7 - - - - E 6 7 3 4 1014.5 - 0.0
22/09:30pm 20.1 - - - - ESE 7 7 4 4 1014.4 - 0.0
22/09:00pm 20.4 - - - - ESE 7 9 4 5 1014.3 1014.3 0.0
22/08:30pm 21.0 - - - - ESE 7 9 4 5 1014.0 - 0.0

Latest Capital City Observations: Canberra | Sydney | Melbourne | Brisbane | Adelaide | Perth | Hobart | Darwin

Other Formats:

Comma delimited format used in spreadsheet applications
http://www.bom.gov.au/fwo/IDD60901/IDD60901.94122.axf

JavaScript Object Notation format (JSON) in row-major order
http://www.bom.gov.au/fwo/IDD60901/IDD60901.94122.json